createdAt,value
2023-03-15T00:01:43.132Z,2
2023-03-15T00:03:26.427Z,1
2023-03-15T00:05:09.827Z,1
2023-03-15T00:06:53.270Z,1
2023-03-15T00:08:36.578Z,2
2023-03-15T00:12:03.079Z,0
2023-03-15T00:13:46.532Z,2
2023-03-15T00:15:29.829Z,1
2023-03-15T00:17:13.352Z,1
2023-03-15T00:18:56.644Z,1
2023-03-15T00:20:40.031Z,1
2023-03-15T00:22:23.448Z,1
2023-03-15T00:24:06.827Z,1
2023-03-15T00:27:33.308Z,1
2023-03-15T00:29:16.797Z,1
2023-03-15T00:31:00.216Z,1
2023-03-15T00:32:43.524Z,1
2023-03-15T00:34:26.905Z,1
2023-03-15T00:36:10.303Z,1
2023-03-15T00:37:53.674Z,1
2023-03-15T00:39:37.114Z,1
2023-03-15T00:43:03.665Z,1
2023-03-15T00:44:46.973Z,2
2023-03-15T00:46:30.401Z,2
2023-03-15T00:48:13.777Z,1
2023-03-15T00:49:57.139Z,1
2023-03-15T00:51:40.523Z,1
2023-03-15T00:53:23.931Z,0
2023-03-15T00:55:07.310Z,1
2023-03-15T00:56:50.830Z,1
2023-03-15T00:58:34.458Z,2
2023-03-15T01:00:17.820Z,1
2023-03-15T01:02:01.230Z,1
2023-03-15T01:03:44.744Z,1
2023-03-15T01:05:28.079Z,1
2023-03-15T01:07:11.381Z,0
2023-03-15T01:08:54.865Z,0
2023-03-15T01:10:38.202Z,1
2023-03-15T01:12:21.580Z,1
2023-03-15T01:15:48.059Z,1
2023-03-15T01:17:31.451Z,0
2023-03-15T01:19:14.838Z,0
2023-03-15T01:20:58.247Z,2
2023-03-15T01:22:41.632Z,1
2023-03-15T01:24:25.111Z,1
2023-03-15T01:26:08.433Z,1
2023-03-15T01:27:51.898Z,1
2023-03-15T01:31:18.306Z,1
2023-03-15T01:33:01.699Z,1
2023-03-15T01:34:45.100Z,1
2023-03-15T01:36:28.597Z,1
2023-03-15T01:38:11.971Z,1
2023-03-15T01:39:55.273Z,1
2023-03-15T01:41:38.770Z,1
2023-03-15T01:43:22.086Z,1
2023-03-15T01:48:31.319Z,1
2023-03-15T01:50:14.709Z,1
2023-03-15T01:51:58.105Z,1
2023-03-15T01:53:41.506Z,2
2023-03-15T01:55:24.948Z,1
2023-03-15T01:57:08.299Z,2
2023-03-15T01:58:51.713Z,1
2023-03-15T02:00:35.139Z,1
2023-03-15T02:04:01.564Z,1
2023-03-15T02:05:44.999Z,1
2023-03-15T02:07:28.341Z,1
2023-03-15T02:09:11.755Z,1
2023-03-15T02:10:55.138Z,1
2023-03-15T02:12:38.537Z,1
2023-03-15T02:14:21.932Z,1
2023-03-15T02:16:05.331Z,0
2023-03-15T02:19:31.858Z,1
2023-03-15T02:21:15.303Z,1
2023-03-15T02:22:58.612Z,1
2023-03-15T02:24:42.020Z,1
2023-03-15T02:26:25.439Z,1
2023-03-15T02:28:08.856Z,0
2023-03-15T02:29:52.224Z,1
2023-03-15T02:31:35.625Z,1
2023-03-15T02:35:02.078Z,1
2023-03-15T02:36:45.475Z,1
2023-03-15T02:38:28.901Z,0
2023-03-15T02:40:12.269Z,1
2023-03-15T02:41:55.702Z,1
2023-03-15T02:43:39.080Z,1
2023-03-15T02:45:22.431Z,1
2023-03-15T02:47:05.870Z,0
2023-03-15T02:50:32.319Z,1
2023-03-15T02:52:15.799Z,1
2023-03-15T02:53:59.097Z,1
2023-03-15T02:55:42.558Z,0
2023-03-15T02:57:25.879Z,1
2023-03-15T02:59:09.293Z,1
2023-03-15T03:00:52.733Z,1
2023-03-15T03:02:36.070Z,1
2023-03-15T03:07:45.350Z,1
2023-03-15T03:09:28.703Z,1
2023-03-15T03:11:12.095Z,1
2023-03-15T03:12:55.496Z,1
2023-03-15T03:14:38.894Z,1
2023-03-15T03:16:22.284Z,1
2023-03-15T03:18:05.686Z,1
2023-03-15T03:19:49.090Z,1
2023-03-15T03:21:32.470Z,2
2023-03-15T03:24:58.962Z,1
2023-03-15T03:26:42.337Z,2
2023-03-15T03:28:25.749Z,1
2023-03-15T03:30:09.137Z,1
2023-03-15T03:31:52.528Z,1
2023-03-15T03:33:35.927Z,1
2023-03-15T03:35:19.500Z,1
2023-03-15T03:37:02.709Z,1
2023-03-15T03:42:11.969Z,1
2023-03-15T03:43:55.379Z,2
2023-03-15T03:45:38.749Z,0
2023-03-15T03:47:22.153Z,2
2023-03-15T03:49:05.543Z,1
2023-03-15T03:50:48.959Z,2
2023-03-15T03:52:32.339Z,1
2023-03-15T03:54:15.728Z,2
2023-03-15T03:59:24.966Z,1
2023-03-15T04:01:08.360Z,1
2023-03-15T04:02:51.758Z,1
2023-03-15T04:04:35.156Z,1
2023-03-15T04:06:18.576Z,1
2023-03-15T04:08:01.955Z,1
2023-03-15T04:09:45.357Z,1
2023-03-15T04:11:28.787Z,1
2023-03-15T04:16:37.991Z,1
2023-03-15T04:18:21.425Z,1
2023-03-15T04:20:04.796Z,1
2023-03-15T04:21:48.172Z,1
2023-03-15T04:23:31.737Z,1
2023-03-15T04:25:15.004Z,1
2023-03-15T04:26:58.356Z,0
2023-03-15T04:28:41.769Z,0
2023-03-15T04:33:51.013Z,1
2023-03-15T04:35:34.397Z,0
2023-03-15T04:37:17.968Z,1
2023-03-15T04:39:01.207Z,1
2023-03-15T04:40:44.595Z,1
2023-03-15T04:42:27.988Z,1
2023-03-15T04:44:11.388Z,1
2023-03-15T04:45:54.782Z,1
2023-03-15T04:49:21.315Z,1
2023-03-15T04:51:04.652Z,0
2023-03-15T04:52:48.109Z,1
2023-03-15T04:54:31.455Z,1
2023-03-15T04:56:14.883Z,1
2023-03-15T04:57:58.229Z,1
2023-03-15T04:59:41.628Z,1
2023-03-15T05:01:25.035Z,1
2023-03-15T05:06:34.285Z,1
2023-03-15T05:08:17.668Z,1
2023-03-15T05:10:01.079Z,0
2023-03-15T05:11:44.450Z,1
2023-03-15T05:13:27.840Z,2
2023-03-15T05:15:11.282Z,1
2023-03-15T05:16:54.654Z,1
2023-03-15T05:18:38.037Z,0
2023-03-15T05:23:47.289Z,1
2023-03-15T05:25:30.767Z,1
2023-03-15T05:27:14.071Z,1
2023-03-15T05:28:57.486Z,1
2023-03-15T05:30:40.874Z,2
2023-03-15T05:32:24.358Z,1
2023-03-15T05:34:07.652Z,1
2023-03-15T05:35:51.091Z,2
2023-03-15T05:39:17.519Z,1
2023-03-15T05:41:00.924Z,0
2023-03-15T05:42:44.387Z,1
2023-03-15T05:44:27.716Z,0
2023-03-15T05:46:11.128Z,1
2023-03-15T05:47:54.507Z,1
2023-03-15T05:49:37.911Z,1
2023-03-15T05:51:21.337Z,1
2023-03-15T05:54:47.767Z,1
2023-03-15T05:56:31.173Z,1
2023-03-15T05:58:14.706Z,1
2023-03-15T05:59:57.978Z,1
2023-03-15T06:01:41.539Z,1
2023-03-15T06:03:24.766Z,1
2023-03-15T06:05:08.150Z,1
2023-03-15T06:06:51.535Z,1
2023-03-15T06:10:18.014Z,1
2023-03-15T06:12:01.410Z,1
2023-03-15T06:13:44.815Z,1
2023-03-15T06:15:28.201Z,1
2023-03-15T06:17:11.612Z,1
2023-03-15T06:18:54.997Z,1
2023-03-15T06:20:38.410Z,0
2023-03-15T06:22:21.777Z,1
2023-03-15T06:27:31.027Z,2
2023-03-15T06:29:14.496Z,2
2023-03-15T06:30:57.822Z,1
2023-03-15T06:32:41.203Z,1
2023-03-15T06:34:24.615Z,1
2023-03-15T06:36:08.103Z,0
2023-03-15T06:37:51.458Z,1
2023-03-15T06:39:34.789Z,1
2023-03-15T06:43:01.327Z,1
2023-03-15T06:44:44.763Z,1
2023-03-15T06:46:28.065Z,1
2023-03-15T06:48:11.459Z,2
2023-03-15T06:49:54.845Z,1
2023-03-15T06:51:38.283Z,2
2023-03-15T06:53:21.642Z,2
2023-03-15T06:55:05.046Z,2
2023-03-15T07:00:14.341Z,2
2023-03-15T07:01:57.682Z,2
2023-03-15T07:03:41.158Z,2
2023-03-15T07:05:24.484Z,1
2023-03-15T07:07:07.980Z,2
2023-03-15T07:08:51.366Z,2
2023-03-15T07:10:34.654Z,2
2023-03-15T07:12:18.088Z,2
2023-03-15T07:17:27.294Z,1
2023-03-15T07:19:10.698Z,498
2023-03-15T07:20:54.224Z,495
2023-03-15T07:22:37.492Z,473
2023-03-15T07:24:20.884Z,489
2023-03-15T07:26:04.347Z,473
2023-03-15T07:27:47.673Z,501
2023-03-15T07:29:31.113Z,508
2023-03-15T07:32:57.542Z,524
2023-03-15T07:34:40.944Z,544
2023-03-15T07:36:24.344Z,534
2023-03-15T07:38:07.743Z,527
2023-03-15T07:39:51.124Z,524
2023-03-15T07:41:34.563Z,613
2023-03-15T07:43:17.921Z,747
2023-03-15T07:45:01.353Z,761
2023-03-15T07:48:27.787Z,757
2023-03-15T07:50:11.169Z,756
2023-03-15T07:51:54.574Z,768
2023-03-15T07:53:38.028Z,778
2023-03-15T07:55:21.372Z,776
2023-03-15T07:57:04.775Z,776
2023-03-15T07:58:48.242Z,764
2023-03-15T08:00:31.580Z,775
2023-03-15T08:03:58.091Z,779
2023-03-15T08:05:41.463Z,778
2023-03-15T08:07:24.827Z,778
2023-03-15T08:09:08.291Z,778
2023-03-15T08:10:51.695Z,778
2023-03-15T08:12:35.072Z,778
2023-03-15T08:14:18.457Z,778
2023-03-15T08:16:01.887Z,778
2023-03-15T08:19:28.380Z,778
2023-03-15T08:21:11.675Z,779
2023-03-15T08:22:55.067Z,754
2023-03-15T08:24:38.479Z,778
2023-03-15T08:26:21.879Z,778
2023-03-15T08:28:05.283Z,778
2023-03-15T08:29:48.657Z,778
2023-03-15T08:31:32.054Z,779
2023-03-15T08:36:41.304Z,779
2023-03-15T08:38:24.813Z,779
2023-03-15T08:40:08.077Z,778
2023-03-15T08:41:51.566Z,779
2023-03-15T08:43:34.859Z,778
2023-03-15T08:45:18.329Z,778
2023-03-15T08:47:01.720Z,599
2023-03-15T08:48:45.101Z,777
2023-03-15T08:52:11.546Z,770
2023-03-15T08:53:54.935Z,778
2023-03-15T08:55:38.427Z,778
2023-03-15T08:57:21.719Z,778
2023-03-15T08:59:05.127Z,778
2023-03-15T09:00:48.608Z,778
2023-03-15T09:02:31.901Z,778
2023-03-15T09:04:15.302Z,267
2023-03-15T09:09:24.555Z,327
2023-03-15T09:11:07.957Z,671
2023-03-15T09:12:51.342Z,778
2023-03-15T09:14:34.748Z,778
2023-03-15T09:16:18.294Z,569
2023-03-15T09:18:01.558Z,635
2023-03-15T09:19:45.117Z,778
2023-03-15T09:21:28.424Z,778
2023-03-15T09:24:54.901Z,778
2023-03-15T09:26:38.218Z,778
2023-03-15T09:28:21.648Z,692
2023-03-15T09:30:05.014Z,687
2023-03-15T09:31:48.494Z,689
2023-03-15T09:33:31.806Z,594
2023-03-15T09:35:15.190Z,473
2023-03-15T09:36:58.580Z,620
2023-03-15T09:38:42.286Z,643
2023-03-15T09:40:25.669Z,560
2023-03-15T09:42:09.176Z,456
2023-03-15T09:43:52.528Z,416
2023-03-15T09:45:35.898Z,421
2023-03-15T09:47:19.357Z,506
2023-03-15T09:49:02.717Z,453
2023-03-15T09:50:46.195Z,778
2023-03-15T09:54:12.544Z,627
2023-03-15T09:55:55.982Z,721
2023-03-15T09:57:39.356Z,778
2023-03-15T09:59:22.762Z,778
2023-03-15T10:01:06.238Z,565
2023-03-15T10:02:49.580Z,487
2023-03-15T10:04:33.022Z,458
2023-03-15T10:06:16.430Z,425
2023-03-15T10:09:42.791Z,354
2023-03-15T10:11:26.223Z,318
2023-03-15T10:13:09.638Z,306
2023-03-15T10:14:53.004Z,343
2023-03-15T10:16:36.444Z,359
2023-03-15T10:18:19.777Z,359
2023-03-15T10:20:03.204Z,335
2023-03-15T10:25:12.411Z,187
2023-03-15T10:26:55.798Z,217
2023-03-15T10:28:39.196Z,135
2023-03-15T10:30:22.593Z,133
2023-03-15T10:32:06.059Z,118
2023-03-15T10:33:49.487Z,125
2023-03-15T10:35:32.939Z,116
2023-03-15T10:37:16.231Z,115
2023-03-15T10:38:59.881Z,132
2023-03-15T10:40:43.319Z,137
2023-03-15T10:42:26.666Z,152
2023-03-15T10:44:10.060Z,168
2023-03-15T10:45:53.483Z,174
2023-03-15T10:47:36.885Z,177
2023-03-15T10:49:20.298Z,162
2023-03-15T10:51:03.665Z,161
2023-03-15T10:54:30.126Z,181
2023-03-15T10:56:13.514Z,205
2023-03-15T10:57:56.981Z,229
2023-03-15T10:59:40.388Z,242
2023-03-15T11:01:23.697Z,224
2023-03-15T11:03:07.106Z,212
2023-03-15T11:04:50.530Z,198
2023-03-15T11:06:33.905Z,241
2023-03-15T11:08:17.616Z,276
2023-03-15T11:10:00.986Z,468
2023-03-15T11:11:44.382Z,299
2023-03-15T11:13:27.788Z,409
2023-03-15T11:15:11.223Z,300
2023-03-15T11:16:54.565Z,262
2023-03-15T11:18:38.036Z,228
2023-03-15T11:20:21.362Z,509
2023-03-15T11:22:05.065Z,222
2023-03-15T11:23:48.525Z,166
2023-03-15T11:25:31.865Z,139
2023-03-15T11:27:15.260Z,100
2023-03-15T11:28:58.675Z,85
2023-03-15T11:30:42.061Z,74
2023-03-15T11:32:25.436Z,83
2023-03-15T11:34:08.840Z,95
2023-03-15T11:37:35.318Z,85
2023-03-15T11:39:18.747Z,94
2023-03-15T11:41:02.167Z,113
2023-03-15T11:42:45.567Z,119
2023-03-15T11:44:28.903Z,110
2023-03-15T11:46:12.357Z,102
2023-03-15T11:47:55.703Z,99
2023-03-15T11:53:04.945Z,53
2023-03-15T11:54:48.379Z,48
2023-03-15T11:56:31.746Z,46
2023-03-15T11:58:15.113Z,43
2023-03-15T11:59:58.537Z,57
2023-03-15T12:01:41.943Z,59
2023-03-15T12:03:25.320Z,58
2023-03-15T12:05:08.711Z,55
2023-03-15T12:06:52.474Z,55
2023-03-15T12:08:35.827Z,61
2023-03-15T12:10:19.241Z,72
2023-03-15T12:12:02.610Z,79
2023-03-15T12:13:46.004Z,83
2023-03-15T12:15:29.408Z,91
2023-03-15T12:17:12.810Z,89
2023-03-15T12:18:56.257Z,81
2023-03-15T12:22:22.710Z,68
2023-03-15T12:24:06.104Z,75
2023-03-15T12:25:49.566Z,83
2023-03-15T12:27:32.868Z,86
2023-03-15T12:29:16.244Z,83
2023-03-15T12:30:59.636Z,80
2023-03-15T12:32:43.043Z,78
2023-03-15T12:37:52.938Z,97
2023-03-15T12:39:36.305Z,108
2023-03-15T12:41:19.696Z,119
2023-03-15T12:43:03.187Z,129
2023-03-15T12:44:46.486Z,137
2023-03-15T12:46:29.907Z,144
2023-03-15T12:48:13.289Z,145
2023-03-15T12:49:57.153Z,140
2023-03-15T12:51:40.497Z,137
2023-03-15T12:53:23.837Z,128
2023-03-15T12:55:07.189Z,115
2023-03-15T12:56:50.612Z,104
2023-03-15T12:58:33.976Z,99
2023-03-15T13:00:17.368Z,97
2023-03-15T13:02:00.763Z,104
2023-03-15T13:03:44.485Z,118
2023-03-15T13:05:27.870Z,135
2023-03-15T13:07:11.295Z,151
2023-03-15T13:08:54.645Z,178
2023-03-15T13:10:38.056Z,145
2023-03-15T13:12:21.527Z,134
2023-03-15T13:14:04.844Z,132
2023-03-15T13:15:48.255Z,140
2023-03-15T13:19:14.718Z,164
2023-03-15T13:20:58.108Z,160
2023-03-15T13:22:41.505Z,152
2023-03-15T13:24:24.880Z,129
2023-03-15T13:26:08.311Z,112
2023-03-15T13:27:51.694Z,110
2023-03-15T13:29:35.111Z,109
2023-03-15T13:31:18.478Z,97
2023-03-15T13:34:45.017Z,72
2023-03-15T13:36:28.406Z,71
2023-03-15T13:38:11.822Z,72
2023-03-15T13:39:55.231Z,75
2023-03-15T13:41:38.543Z,80
2023-03-15T13:43:22.028Z,86
2023-03-15T13:45:05.337Z,94
2023-03-15T13:46:48.743Z,96
2023-03-15T13:50:15.285Z,99
2023-03-15T13:51:58.601Z,95
2023-03-15T13:53:41.999Z,83
2023-03-15T13:55:25.392Z,83
2023-03-15T13:57:08.792Z,83
2023-03-15T13:58:52.201Z,83
2023-03-15T14:00:35.595Z,83
2023-03-15T14:02:19.010Z,82
2023-03-15T14:05:45.452Z,83
2023-03-15T14:07:28.952Z,82
2023-03-15T14:09:12.263Z,89
2023-03-15T14:10:55.641Z,88
2023-03-15T14:12:39.043Z,81
2023-03-15T14:14:22.484Z,59
2023-03-15T14:16:05.824Z,69
2023-03-15T14:17:49.250Z,36
2023-03-15T14:21:15.711Z,24
2023-03-15T14:22:59.151Z,21
2023-03-15T14:24:42.496Z,23
2023-03-15T14:26:25.902Z,28
2023-03-15T14:28:09.297Z,35
2023-03-15T14:29:52.677Z,45
2023-03-15T14:31:36.185Z,53
2023-03-15T14:33:19.481Z,64
2023-03-15T14:36:45.943Z,63
2023-03-15T14:38:29.334Z,59
2023-03-15T14:40:12.734Z,64
2023-03-15T14:41:56.131Z,75
2023-03-15T14:43:39.538Z,81
2023-03-15T14:45:22.990Z,86
2023-03-15T14:47:06.327Z,212
2023-03-15T14:48:49.719Z,96
2023-03-15T14:52:16.221Z,89
2023-03-15T14:53:59.827Z,109
2023-03-15T14:55:43.013Z,81
2023-03-15T14:57:26.395Z,85
2023-03-15T14:59:09.811Z,96
2023-03-15T15:00:53.172Z,82
2023-03-15T15:02:36.594Z,77
2023-03-15T15:04:20.046Z,83
2023-03-15T15:07:46.516Z,73
2023-03-15T15:09:29.916Z,69
2023-03-15T15:11:13.295Z,63
2023-03-15T15:12:56.642Z,62
2023-03-15T15:14:40.125Z,58
2023-03-15T15:16:23.447Z,53
2023-03-15T15:18:06.903Z,46
2023-03-15T15:19:50.231Z,29
2023-03-15T15:23:16.724Z,22
2023-03-15T15:25:00.085Z,24
2023-03-15T15:26:43.565Z,28
2023-03-15T15:28:26.881Z,37
2023-03-15T15:30:10.252Z,48
2023-03-15T15:31:53.669Z,47
2023-03-15T15:33:37.071Z,46
2023-03-15T15:35:20.479Z,47
2023-03-15T15:37:04.243Z,46
2023-03-15T15:38:47.546Z,42
2023-03-15T15:40:31.070Z,38
2023-03-15T15:42:14.398Z,33
2023-03-15T15:43:57.807Z,30
2023-03-15T15:45:41.180Z,32
2023-03-15T15:47:24.533Z,29
2023-03-15T15:49:07.934Z,30
2023-03-15T15:52:34.419Z,26
2023-03-15T15:54:17.934Z,22
2023-03-15T15:56:01.248Z,21
2023-03-15T15:57:44.586Z,19
2023-03-15T15:59:27.994Z,17
2023-03-15T16:01:11.393Z,16
2023-03-15T16:02:54.851Z,16
2023-03-15T16:04:38.318Z,16
2023-03-15T16:06:21.935Z,15
2023-03-15T16:08:05.327Z,12
2023-03-15T16:09:48.686Z,11
2023-03-15T16:11:32.075Z,583
2023-03-15T16:13:15.463Z,581
2023-03-15T16:14:58.969Z,579
2023-03-15T16:16:42.251Z,577
2023-03-15T16:18:25.643Z,578
2023-03-15T16:21:52.129Z,595
2023-03-15T16:23:35.577Z,597
2023-03-15T16:25:18.936Z,594
2023-03-15T16:27:02.304Z,578
2023-03-15T16:28:45.706Z,581
2023-03-15T16:30:29.106Z,584
2023-03-15T16:32:12.505Z,580
2023-03-15T16:37:21.746Z,616
2023-03-15T16:39:05.164Z,614
2023-03-15T16:40:48.530Z,594
2023-03-15T16:42:31.923Z,590
2023-03-15T16:44:15.339Z,598
2023-03-15T16:45:58.804Z,600
2023-03-15T16:47:42.149Z,618
2023-03-15T16:49:25.510Z,572
2023-03-15T16:52:51.986Z,568
2023-03-15T16:54:35.555Z,773
2023-03-15T16:56:19.048Z,778
2023-03-15T16:58:02.368Z,777
2023-03-15T16:59:45.726Z,774
2023-03-15T17:01:29.102Z,778
2023-03-15T17:03:12.419Z,778
2023-03-15T17:04:55.941Z,755
2023-03-15T17:06:39.516Z,778
2023-03-15T17:08:23.227Z,777
2023-03-15T17:10:06.263Z,778
2023-03-15T17:11:49.658Z,765
2023-03-15T17:13:48.513Z,549
2023-03-15T17:15:16.439Z,10
2023-03-15T17:17:15.608Z,13
2023-03-15T17:18:43.240Z,11
2023-03-15T17:22:09.847Z,10
2023-03-15T17:23:53.262Z,10
2023-03-15T17:25:36.714Z,10
2023-03-15T17:27:19.898Z,9
2023-03-15T17:29:03.304Z,9
2023-03-15T17:30:46.692Z,10
2023-03-15T17:32:30.283Z,10
2023-03-15T17:34:13.496Z,9
2023-03-15T17:37:39.952Z,9
2023-03-15T17:39:23.349Z,10
2023-03-15T17:41:06.875Z,9
2023-03-15T17:42:50.153Z,8
2023-03-15T17:44:33.579Z,9
2023-03-15T17:46:17.062Z,9
2023-03-15T17:48:00.352Z,9
2023-03-15T17:49:43.826Z,9
2023-03-15T17:53:10.257Z,9
2023-03-15T17:54:53.742Z,8
2023-03-15T17:56:37.217Z,8
2023-03-15T17:58:20.418Z,9
2023-03-15T18:00:03.830Z,8
2023-03-15T18:01:47.306Z,9
2023-03-15T18:03:30.788Z,9
2023-03-15T18:08:39.844Z,9
2023-03-15T18:10:23.228Z,8
2023-03-15T18:12:06.665Z,9
2023-03-15T18:13:50.021Z,9
2023-03-15T18:15:33.443Z,8
2023-03-15T18:17:16.794Z,8
2023-03-15T18:19:00.352Z,8
2023-03-15T18:24:09.496Z,8
2023-03-15T18:25:52.875Z,7
2023-03-15T18:27:36.245Z,9
2023-03-15T18:29:19.622Z,9
2023-03-15T18:31:03.048Z,8
2023-03-15T18:32:46.489Z,9
2023-03-15T18:34:29.869Z,8
2023-03-15T18:39:39.065Z,8
2023-03-15T18:41:22.449Z,8
2023-03-15T18:43:05.848Z,9
2023-03-15T18:44:49.334Z,8
2023-03-15T18:46:32.685Z,8
2023-03-15T18:48:16.076Z,9
2023-03-15T18:49:59.420Z,9
2023-03-15T18:51:42.836Z,8
2023-03-15T18:55:09.309Z,8
2023-03-15T18:56:52.734Z,9
2023-03-15T18:58:36.091Z,7
2023-03-15T19:00:19.491Z,8
2023-03-15T19:02:02.882Z,8
2023-03-15T19:03:46.327Z,9
2023-03-15T19:05:29.696Z,9
2023-03-15T19:10:38.933Z,9
2023-03-15T19:12:22.327Z,8
2023-03-15T19:14:05.733Z,9
2023-03-15T19:15:49.163Z,8
2023-03-15T19:17:32.530Z,9
2023-03-15T19:19:15.900Z,8
2023-03-15T19:20:59.296Z,9
2023-03-15T19:26:08.607Z,9
2023-03-15T19:27:51.971Z,8
2023-03-15T19:29:35.320Z,8
2023-03-15T19:31:18.797Z,8
2023-03-15T19:33:02.133Z,9
2023-03-15T19:34:45.527Z,9
2023-03-15T19:36:28.917Z,8
2023-03-15T19:38:12.367Z,9
2023-03-15T19:39:56.035Z,8
2023-03-15T19:41:39.425Z,8
2023-03-15T19:43:22.821Z,15
2023-03-15T19:45:06.214Z,103
2023-03-15T19:46:49.605Z,102
2023-03-15T19:48:32.990Z,9
2023-03-15T19:50:16.433Z,8
2023-03-15T19:51:59.780Z,6
2023-03-15T19:55:26.283Z,8
2023-03-15T19:57:09.755Z,8
2023-03-15T19:58:53.051Z,9
2023-03-15T20:00:36.453Z,9
2023-03-15T20:02:19.887Z,8
2023-03-15T20:04:03.241Z,8
2023-03-15T20:05:46.661Z,8
2023-03-15T20:07:30.064Z,8
2023-03-15T20:10:56.493Z,9
2023-03-15T20:12:39.906Z,8
2023-03-15T20:14:23.303Z,8
2023-03-15T20:16:06.713Z,8
2023-03-15T20:17:50.094Z,9
2023-03-15T20:19:33.573Z,9
2023-03-15T20:21:16.891Z,9
2023-03-15T20:23:00.377Z,8
2023-03-15T20:26:26.754Z,8
2023-03-15T20:28:10.165Z,8
2023-03-15T20:29:53.556Z,8
2023-03-15T20:31:36.951Z,8
2023-03-15T20:33:20.353Z,8
2023-03-15T20:35:03.743Z,9
2023-03-15T20:36:47.252Z,8
2023-03-15T20:38:30.556Z,8
2023-03-15T20:40:14.045Z,8
2023-03-15T20:41:57.672Z,8
2023-03-15T20:43:41.031Z,8
2023-03-15T20:45:24.421Z,8
2023-03-15T20:47:07.983Z,9
2023-03-15T20:48:51.196Z,9
2023-03-15T20:50:34.619Z,8
2023-03-15T20:52:18.007Z,8
2023-03-15T20:54:01.391Z,6
2023-03-15T20:57:27.847Z,9
2023-03-15T20:59:11.395Z,8
2023-03-15T21:00:54.691Z,9
2023-03-15T21:02:38.079Z,9
2023-03-15T21:04:21.447Z,9
2023-03-15T21:06:04.843Z,9
2023-03-15T21:07:48.300Z,9
2023-03-15T21:09:31.646Z,8
2023-03-15T21:12:58.107Z,9
2023-03-15T21:14:41.526Z,9
2023-03-15T21:16:24.907Z,9
2023-03-15T21:18:08.302Z,9
2023-03-15T21:19:51.703Z,9
2023-03-15T21:21:35.125Z,9
2023-03-15T21:23:18.575Z,9
2023-03-15T21:25:01.909Z,9
2023-03-15T21:26:45.600Z,9
2023-03-15T21:28:28.989Z,9
2023-03-15T21:30:12.389Z,9
2023-03-15T21:31:55.766Z,9
2023-03-15T21:33:39.163Z,9
2023-03-15T21:35:22.561Z,9
2023-03-15T21:37:05.980Z,10
2023-03-15T21:38:49.366Z,9
2023-03-15T21:40:33.069Z,9
2023-03-15T21:42:16.446Z,9
2023-03-15T21:43:59.922Z,8
2023-03-15T21:45:43.229Z,8
2023-03-15T21:47:26.637Z,8
2023-03-15T21:49:10.040Z,8
2023-03-15T21:50:53.441Z,8
2023-03-15T21:52:36.823Z,9
2023-03-15T21:56:03.306Z,8
2023-03-15T21:57:46.694Z,8
2023-03-15T21:59:30.096Z,9
2023-03-15T22:01:13.486Z,8
2023-03-15T22:02:56.894Z,8
2023-03-15T22:04:40.289Z,8
2023-03-15T22:06:23.679Z,9
2023-03-15T22:08:07.100Z,8
2023-03-15T22:11:33.541Z,8
2023-03-15T22:13:16.935Z,9
2023-03-15T22:15:00.357Z,10
2023-03-15T22:16:43.739Z,9
2023-03-15T22:18:27.138Z,8
2023-03-15T22:20:10.538Z,8
2023-03-15T22:21:53.955Z,9
2023-03-15T22:23:37.317Z,9
2023-03-15T22:27:03.954Z,9
2023-03-15T22:28:47.195Z,9
2023-03-15T22:30:30.646Z,9
2023-03-15T22:32:13.987Z,9
2023-03-15T22:33:57.381Z,9
2023-03-15T22:35:40.796Z,9
2023-03-15T22:37:24.199Z,8
2023-03-15T22:39:07.607Z,9
2023-03-15T22:40:51.268Z,9
2023-03-15T22:42:34.673Z,8
2023-03-15T22:44:18.221Z,9
2023-03-15T22:46:01.456Z,8
2023-03-15T22:47:44.882Z,9
2023-03-15T22:49:28.395Z,9
2023-03-15T22:51:11.685Z,8
2023-03-15T22:52:55.136Z,8
2023-03-15T22:56:21.528Z,9
2023-03-15T22:58:04.914Z,9
2023-03-15T22:59:48.323Z,8
2023-03-15T23:01:31.738Z,8
2023-03-15T23:03:15.139Z,8
2023-03-15T23:04:58.504Z,8
2023-03-15T23:06:41.892Z,8
2023-03-15T23:08:25.320Z,9
2023-03-15T23:11:51.764Z,8
2023-03-15T23:13:35.169Z,9
2023-03-15T23:15:18.550Z,8
2023-03-15T23:17:01.973Z,8
2023-03-15T23:18:45.393Z,8
2023-03-15T23:20:28.756Z,9
2023-03-15T23:22:12.146Z,8
2023-03-15T23:23:55.554Z,8
2023-03-15T23:27:22.023Z,8
2023-03-15T23:29:05.459Z,9
2023-03-15T23:30:48.884Z,9
2023-03-15T23:32:32.213Z,9
2023-03-15T23:34:15.609Z,8
2023-03-15T23:35:59.011Z,9
2023-03-15T23:37:42.397Z,8
2023-03-15T23:39:25.806Z,8
2023-03-15T23:44:35.051Z,9
2023-03-15T23:46:18.442Z,8
2023-03-15T23:48:01.825Z,9
2023-03-15T23:49:45.223Z,8
2023-03-15T23:51:28.653Z,8
2023-03-15T23:53:12.018Z,9
2023-03-15T23:54:55.421Z,9
2023-03-15T23:56:38.875Z,8
